Time;durP1;ratioP1;P1;durP2;ratioP2;P2;SDS_P1;SDS_P2;PMS_P1;PMS_P2;Temp;Humidity;BMP_temperature;BMP_pressure;BME280_temperature;BME280_humidity;BME280_pressure;Samples;Min_cycle;Max_cycle;Signal;HPM_P1;HPM_P2
2023/01/12 00:00:55;;;;;;;96.57;55.17;;;;;;;2.23;100.00;96700.41;5058738;28;20032;-71
2023/01/12 00:03:21;;;;;;;90.40;56.25;;;;;;;2.23;100.00;96706.41;5064581;28;20029;-71
2023/01/12 00:05:46;;;;;;;82.97;52.70;;;;;;;2.23;100.00;96705.59;5066787;28;20024;-71
2023/01/12 00:08:11;;;;;;;98.60;59.58;;;;;;;2.20;100.00;96711.75;5068560;28;20027;-63
2023/01/12 00:10:37;;;;;;;78.15;50.58;;;;;;;2.19;100.00;96707.47;5067966;28;20028;-70
2023/01/12 00:13:02;;;;;;;73.30;48.10;;;;;;;2.19;100.00;96709.22;5067665;28;20024;-63
2023/01/12 00:18:11;;;;;;;68.43;44.70;;;;;;;2.10;100.00;96706.09;5063636;28;20094;-62
2023/01/12 00:20:36;;;;;;;61.80;43.92;;;;;;;2.09;100.00;96708.75;5039302;28;20033;-62
2023/01/12 00:23:02;;;;;;;60.97;44.17;;;;;;;2.06;100.00;96711.47;5073993;28;20069;-62
2023/01/12 00:25:27;;;;;;;55.58;42.80;;;;;;;2.00;100.00;96704.81;5063471;28;20036;-62
2023/01/12 00:27:52;;;;;;;63.10;41.58;;;;;;;1.92;100.00;96710.31;5060346;28;20013;-62
2023/01/12 00:30:18;;;;;;;52.75;38.00;;;;;;;1.83;100.00;96710.69;5066231;28;20036;-61
2023/01/12 00:32:43;;;;;;;54.92;38.78;;;;;;;1.84;100.00;96710.63;5072402;28;20062;-71
2023/01/12 00:35:08;;;;;;;47.85;34.85;;;;;;;1.69;100.00;96701.72;5066499;28;20037;-72
2023/01/12 00:37:34;;;;;;;43.72;31.35;;;;;;;1.65;100.00;96709.69;5072834;28;20044;-71
2023/01/12 00:39:59;;;;;;;37.90;29.55;;;;;;;1.58;100.00;96701.31;5067615;28;20028;-71
2023/01/12 00:45:21;;;;;;;37.20;25.75;;;;;;;1.55;100.00;96691.03;5062267;28;20055;-71
2023/01/12 00:47:46;;;;;;;34.60;25.17;;;;;;;1.52;100.00;96704.16;5059927;28;20058;-63
2023/01/12 00:50:12;;;;;;;24.95;22.27;;;;;;;1.46;100.00;96702.63;5063922;28;20517;-61
2023/01/12 00:52:38;;;;;;;50.72;30.33;;;;;;;1.42;100.00;96699.31;5051889;28;20117;-71
2023/01/12 00:55:03;;;;;;;65.13;41.70;;;;;;;1.40;100.00;96706.31;5059834;28;20124;-71
2023/01/12 00:57:29;;;;;;;39.33;23.70;;;;;;;1.41;100.00;96709.75;5059599;28;20024;-70
2023/01/12 00:59:56;;;;;;;37.58;28.27;;;;;;;1.35;100.00;96710.00;5058457;28;20064;-71
2023/01/12 01:02:22;;;;;;;54.25;35.88;;;;;;;1.32;100.00;96702.31;5058620;28;20035;-70
2023/01/12 01:04:48;;;;;;;62.55;39.67;;;;;;;1.32;100.00;96702.31;5051588;28;20021;-71
2023/01/12 01:07:14;;;;;;;62.15;39.95;;;;;;;1.28;100.00;96697.25;5052027;28;20470;-71
2023/01/12 01:09:40;;;;;;;63.92;37.45;;;;;;;1.25;100.00;96696.56;5064491;28;20047;-63
2023/01/12 01:12:06;;;;;;;88.68;43.00;;;;;;;1.21;100.00;96697.56;5059188;28;20029;-63
2023/01/12 01:14:32;;;;;;;87.75;45.53;;;;;;;1.18;100.00;96695.09;5063243;28;20029;-63
2023/01/12 01:16:57;;;;;;;94.28;43.03;;;;;;;1.20;100.00;96690.69;5053338;28;20032;-63
2023/01/12 01:19:23;;;;;;;65.53;35.75;;;;;;;1.16;100.00;96686.50;5058722;28;20044;-63
2023/01/12 01:21:48;;;;;;;45.45;35.40;;;;;;;1.09;100.00;96694.53;5061064;28;20047;-63
2023/01/12 01:24:14;;;;;;;54.85;34.70;;;;;;;1.06;100.00;96686.03;5063767;28;20067;-64
2023/01/12 01:26:40;;;;;;;40.83;31.20;;;;;;;1.07;100.00;96692.91;5067427;28;20085;-64
2023/01/12 01:29:05;;;;;;;46.33;24.25;;;;;;;1.02;100.00;96681.88;5066789;28;20502;-62
2023/01/12 01:31:31;;;;;;;23.77;21.30;;;;;;;1.02;100.00;96684.47;5063674;28;20031;-63
2023/01/12 01:33:57;;;;;;;32.08;21.48;;;;;;;1.01;100.00;96683.63;5061968;28;20025;-63
2023/01/12 01:36:22;;;;;;;41.42;21.67;;;;;;;1.05;100.00;96682.59;5065510;28;20035;-63
2023/01/12 01:38:49;;;;;;;62.38;21.77;;;;;;;1.05;100.00;96674.81;5057086;28;20469;-64
2023/01/12 01:41:23;;;;;;;94.25;18.42;;;;;;;1.07;100.00;96679.94;5065097;28;20016;-63
2023/01/12 01:43:56;;;;;;;28.98;18.65;;;;;;;1.12;100.00;96686.63;5064615;28;20073;-63
2023/01/12 01:46:48;;;;;;;23.50;16.80;;;;;;;1.13;100.00;96680.53;5061503;28;20063;-63
2023/01/12 01:49:31;;;;;;;40.60;19.13;;;;;;;1.15;100.00;96680.50;5055871;28;20025;-63
2023/01/12 01:52:06;;;;;;;21.38;19.38;;;;;;;1.14;100.00;96690.00;5062101;28;20119;-62
2023/01/12 01:54:38;;;;;;;23.10;19.73;;;;;;;1.16;100.00;96694.31;5055504;28;20047;-62
2023/01/12 01:57:06;;;;;;;28.55;21.45;;;;;;;1.13;100.00;96677.94;5064012;28;20079;-62
2023/01/12 01:59:34;;;;;;;24.40;18.50;;;;;;;1.07;100.00;96677.34;5061195;28;20020;-62
2023/01/12 02:02:01;;;;;;;22.52;18.30;;;;;;;1.00;100.00;96681.94;5062917;28;20021;-62
2023/01/12 02:04:27;;;;;;;17.02;14.98;;;;;;;0.94;100.00;96679.56;5059892;28;20029;-70
2023/01/12 02:06:55;;;;;;;45.42;17.67;;;;;;;0.85;100.00;96678.16;5064089;28;20028;-68
2023/01/12 02:09:25;;;;;;;20.23;17.67;;;;;;;0.77;100.00;96681.03;5055666;28;20510;-62
2023/01/12 02:17:42;;;;;;;17.38;15.07;;;;;;;1.05;100.00;96687.78;5058430;28;20040;-62
2023/01/12 02:20:16;;;;;;;;;;;;;;;1.21;100.00;96676.81;5064318;28;20537;-62
2023/01/12 02:23:13;;;;;;;47.78;13.73;;;;;;;1.16;100.00;96679.59;5062290;28;19917;-62
2023/01/12 02:26:12;;;;;;;64.45;13.60;;;;;;;1.14;100.00;96668.44;5054904;28;20009;-67
2023/01/12 02:28:56;;;;;;;37.75;13.43;;;;;;;1.19;100.00;96657.84;5069590;28;20051;-70
2023/01/12 02:31:33;;;;;;;58.38;13.20;;;;;;;1.05;100.00;96668.78;5066025;28;20490;-70
2023/01/12 02:34:26;;;;;;;41.78;12.68;;;;;;;0.98;100.00;96658.66;5058194;28;20028;-69
2023/01/12 02:37:12;;;;;;;17.52;12.95;;;;;;;0.96;100.00;96652.69;5065133;28;20017;-70
2023/01/12 02:39:50;;;;;;;19.83;12.30;;;;;;;0.91;100.00;96640.78;5043919;28;20102;-70
2023/01/12 02:42:42;;;;;;;32.10;12.70;;;;;;;0.87;100.00;96641.81;5042942;28;20037;-69
2023/01/12 02:45:26;;;;;;;15.13;12.98;;;;;;;0.79;100.00;96627.41;5044677;28;20402;-62
2023/01/12 02:48:20;;;;;;;15.43;13.18;;;;;;;0.75;100.00;96624.97;5035448;28;20499;-71
2023/01/12 02:50:54;;;;;;;17.17;12.07;;;;;;;0.74;100.00;96626.72;5047555;28;20473;-71
2023/01/12 02:53:44;;;;;;;14.90;12.07;;;;;;;0.71;100.00;96624.25;5045757;28;20025;-71
2023/01/12 02:56:15;;;;;;;26.13;12.48;;;;;;;0.66;100.00;96628.75;5042331;28;20028;-71
2023/01/12 02:58:45;;;;;;;12.88;11.57;;;;;;;0.61;100.00;96620.31;5040825;28;20038;-71
2023/01/12 03:01:13;;;;;;;19.02;14.68;;;;;;;0.56;100.00;96623.06;5041802;28;20484;-71
2023/01/12 03:03:38;;;;;;;21.55;13.75;;;;;;;0.52;100.00;96616.31;5042246;28;20029;-62
2023/01/12 03:06:06;;;;;;;23.73;12.52;;;;;;;0.53;100.00;96611.06;5052391;28;20509;-62
2023/01/12 03:08:34;;;;;;;37.88;12.65;;;;;;;0.52;100.00;96609.38;5045375;28;20029;-62
2023/01/12 03:11:05;;;;;;;34.90;11.85;;;;;;;0.49;100.00;96613.84;5044187;28;20094;-62
2023/01/12 03:13:35;;;;;;;42.63;17.25;;;;;;;0.47;100.00;96620.84;5041163;28;20111;-63
2023/01/12 03:16:03;;;;;;;22.35;15.88;;;;;;;0.40;100.00;96617.63;5043199;28;20025;-62
2023/01/12 03:18:36;;;;;;;25.35;15.13;;;;;;;0.39;100.00;96618.53;5039958;28;20048;-62
2023/01/12 03:21:06;;;;;;;33.85;13.35;;;;;;;0.35;100.00;96616.97;5047952;28;20035;-62
2023/01/12 03:23:46;;;;;;;26.42;13.93;;;;;;;0.27;100.00;96631.00;5049439;28;20037;-71
2023/01/12 03:26:14;;;;;;;20.25;14.70;;;;;;;0.30;100.00;96639.56;5042827;28;20873;-70
2023/01/12 03:28:45;;;;;;;18.60;14.82;;;;;;;0.28;100.00;96637.88;5058307;28;20034;-70
2023/01/12 03:31:12;;;;;;;14.68;13.20;;;;;;;0.24;100.00;96631.13;5050129;28;20494;-70
2023/01/12 03:33:41;;;;;;;17.00;13.65;;;;;;;0.19;100.00;96633.03;5050636;28;20029;-70
2023/01/12 03:36:18;;;;;;;14.75;11.77;;;;;;;0.13;100.00;96633.28;5048855;28;20041;-70
2023/01/12 03:38:43;;;;;;;10.40;9.23;;;;;;;0.18;100.00;96636.53;5061075;28;20077;-69
2023/01/12 03:41:13;;;;;;;14.45;10.30;;;;;;;0.12;100.00;96637.59;5068833;28;20058;-64
2023/01/12 03:43:48;;;;;;;15.75;11.25;;;;;;;0.17;100.00;96628.81;5073945;28;20077;-70
2023/01/12 03:46:26;;;;;;;12.65;10.90;;;;;;;0.31;100.00;96628.31;5071903;28;20078;-70
2023/01/12 03:49:07;;;;;;;16.67;12.07;;;;;;;0.40;100.00;96633.16;5064571;28;20055;-70
2023/01/12 03:51:38;;;;;;;12.48;11.35;;;;;;;0.33;100.00;96617.00;5067586;28;20044;-70
2023/01/12 03:54:08;;;;;;;16.05;12.10;;;;;;;0.35;100.00;96622.13;5064426;28;20036;-70
2023/01/12 03:56:35;;;;;;;14.98;11.35;;;;;;;0.38;100.00;96622.84;5062151;28;20028;-70
2023/01/12 03:59:01;;;;;;;38.22;13.05;;;;;;;0.37;100.00;96628.09;5041328;28;20035;-70
2023/01/12 04:01:27;;;;;;;18.25;13.60;;;;;;;0.33;100.00;96629.09;5069052;28;20028;-63
2023/01/12 04:03:52;;;;;;;15.85;12.18;;;;;;;0.32;100.00;96637.78;5075896;28;20038;-70
2023/01/12 04:06:17;;;;;;;26.38;12.00;;;;;;;0.32;100.00;96646.41;5062025;28;20028;-70
2023/01/12 04:08:43;;;;;;;14.35;12.38;;;;;;;0.33;100.00;96645.50;5072537;28;20024;-69
2023/01/12 04:13:52;;;;;;;21.75;13.57;;;;;;;0.30;100.00;96652.53;5067650;28;20086;-70
2023/01/12 04:16:18;;;;;;;25.83;13.15;;;;;;;0.27;100.00;96659.50;5062878;28;20032;-70
2023/01/12 04:18:43;;;;;;;12.35;11.15;;;;;;;0.19;100.00;96660.69;5068216;28;20036;-70
2023/01/12 04:22:41;;;;;;;27.92;15.40;;;;;;;0.11;100.00;96651.44;5066469;28;20017;-71
2023/01/12 04:23:54;;;;;;;38.42;28.33;;;;;;;0.09;100.00;96655.84;5070963;28;20111;-70
2023/01/12 04:26:19;;;;;;;22.00;14.52;;;;;;;0.10;100.00;96662.69;5072714;28;20561;-70
2023/01/12 04:28:45;;;;;;;14.32;12.80;;;;;;;0.02;100.00;96659.53;5069087;28;20028;-70
2023/01/12 04:31:10;;;;;;;32.30;12.68;;;;;;;-0.01;100.00;96668.25;5065774;28;20028;-70
2023/01/12 04:33:35;;;;;;;20.15;16.92;;;;;;;-0.03;100.00;96666.59;5078862;28;20028;-70
2023/01/12 04:36:01;;;;;;;31.52;21.17;;;;;;;-0.09;100.00;96670.28;5064698;28;20487;-70
2023/01/12 04:38:26;;;;;;;38.92;24.45;;;;;;;-0.13;100.00;96663.47;5071369;28;20056;-70
2023/01/12 04:40:55;;;;;;;26.55;21.38;;;;;;;-0.17;100.00;96661.91;5069636;28;20031;-64
2023/01/12 04:43:20;;;;;;;30.05;19.52;;;;;;;-0.25;100.00;96674.25;5063177;28;20376;-71
2023/01/12 04:45:46;;;;;;;13.43;11.88;;;;;;;-0.34;100.00;96676.25;5057815;28;20036;-72
2023/01/12 04:48:13;;;;;;;13.30;9.88;;;;;;;-0.35;100.00;96671.97;5041147;28;20112;-71
2023/01/12 04:50:40;;;;;;;13.35;11.75;;;;;;;-0.39;100.00;96657.44;5070454;28;20096;-70
2023/01/12 04:53:06;;;;;;;16.50;12.57;;;;;;;-0.40;100.00;96663.50;5069114;28;20027;-71
2023/01/12 04:55:35;;;;;;;24.90;13.52;;;;;;;-0.38;100.00;96659.13;5077031;28;20020;-70
2023/01/12 04:58:00;;;;;;;16.35;14.70;;;;;;;-0.40;100.00;96658.34;5069168;28;20027;-71
2023/01/12 05:00:25;;;;;;;140.40;24.92;;;;;;;-0.46;100.00;96638.69;5069647;28;20068;-62
2023/01/12 05:03:00;;;;;;;17.48;14.45;;;;;;;-0.44;100.00;96643.81;5068913;28;20028;-69
2023/01/12 05:05:27;;;;;;;15.95;14.23;;;;;;;-0.40;100.00;96655.75;5069579;28;20033;-70
2023/01/12 05:10:36;;;;;;;19.38;15.35;;;;;;;-0.45;100.00;96645.53;5071790;28;20039;-69
2023/01/12 05:13:02;;;;;;;14.95;13.07;;;;;;;-0.50;100.00;96633.69;5082405;28;20495;-70
2023/01/12 05:15:27;;;;;;;15.35;11.32;;;;;;;-0.48;100.00;96637.88;5101498;28;20085;-67
2023/01/12 05:17:53;;;;;;;12.73;8.73;;;;;;;-0.44;100.00;96642.09;5090007;28;20020;-64
2023/01/12 05:20:19;;;;;;;10.95;6.80;;;;;;;-0.40;100.00;96639.41;5089293;28;20028;-67
2023/01/12 05:22:47;;;;;;;7.47;5.30;;;;;;;-0.37;100.00;96628.94;5089806;28;20115;-62
2023/01/12 05:25:13;;;;;;;6.82;5.88;;;;;;;-0.36;100.00;96630.63;5086747;28;20024;-62
2023/01/12 05:27:38;;;;;;;10.18;9.07;;;;;;;-0.38;100.00;96637.59;5085422;28;20093;-62
2023/01/12 05:30:04;;;;;;;9.23;8.00;;;;;;;-0.42;100.00;96631.66;5089472;28;20482;-62
2023/01/12 05:32:29;;;;;;;8.63;7.53;;;;;;;-0.44;100.00;96644.69;5089907;28;20039;-62
2023/01/12 05:34:54;;;;;;;11.95;10.75;;;;;;;-0.41;100.00;96641.13;5089413;28;20077;-62
2023/01/12 05:37:20;;;;;;;12.95;9.75;;;;;;;-0.15;100.00;96639.41;5089421;28;20524;-64
2023/01/12 05:39:45;;;;;;;9.68;8.77;;;;;;;-0.08;100.00;96640.03;5089605;28;20023;-70
2023/01/12 05:44:54;;;;;;;7.30;6.50;;;;;;;-0.20;100.00;96656.84;5089395;28;20432;-63
2023/01/12 05:47:20;;;;;;;8.50;7.03;;;;;;;-0.32;100.00;96663.25;5089263;28;20024;-64
2023/01/12 05:49:45;;;;;;;10.80;7.28;;;;;;;-0.36;100.00;96662.50;5089314;28;20514;-64
2023/01/12 05:52:10;;;;;;;8.75;7.57;;;;;;;-0.42;100.00;96662.72;5089209;28;20489;-63
2023/01/12 05:54:36;;;;;;;10.25;7.65;;;;;;;-0.47;100.00;96672.38;5089391;28;20042;-64
2023/01/12 05:57:01;;;;;;;9.43;8.35;;;;;;;-0.50;100.00;96668.16;5089497;28;20104;-62
2023/01/12 05:59:26;;;;;;;11.90;10.05;;;;;;;-0.47;100.00;96675.81;5089379;28;20024;-69
2023/01/12 06:01:52;;;;;;;13.38;11.45;;;;;;;-0.45;100.00;96674.00;5089411;28;20520;-62
2023/01/12 06:04:17;;;;;;;12.18;10.73;;;;;;;-0.43;100.00;96676.56;5089431;28;20031;-62
2023/01/12 06:06:45;;;;;;;9.07;8.18;;;;;;;-0.42;100.00;96683.41;5086034;28;20028;-62
2023/01/12 06:09:10;;;;;;;11.65;10.07;;;;;;;-0.39;100.00;96685.06;5089129;28;20498;-62
2023/01/12 06:14:20;;;;;;;24.73;19.58;;;;;;;-0.47;100.00;96695.66;5093436;28;20073;-62
2023/01/12 06:16:45;;;;;;;20.55;14.88;;;;;;;-0.54;100.00;96700.19;5093067;28;20519;-63
2023/01/12 06:19:11;;;;;;;18.65;15.20;;;;;;;-0.56;100.00;96714.91;5092822;28;20016;-62
2023/01/12 06:21:37;;;;;;;22.25;19.77;;;;;;;-0.58;100.00;96725.31;5093697;28;20494;-71
2023/01/12 06:24:03;;;;;;;18.10;15.85;;;;;;;-0.56;100.00;96732.16;5058972;28;20108;-69
2023/01/12 06:26:28;;;;;;;14.13;12.63;;;;;;;-0.53;100.00;96732.09;5092867;28;20162;-70
2023/01/12 06:28:53;;;;;;;16.85;13.35;;;;;;;-0.62;100.00;96728.88;5093124;28;20406;-69
2023/01/12 06:31:19;;;;;;;16.30;13.75;;;;;;;-0.71;100.00;96734.34;5092907;28;20389;-70
2023/01/12 06:33:44;;;;;;;14.35;12.85;;;;;;;-0.73;100.00;96730.97;5092542;28;20626;-70
2023/01/12 06:36:10;;;;;;;13.77;12.35;;;;;;;-0.78;100.00;96732.81;5089400;28;20027;-66
2023/01/12 06:38:39;;;;;;;15.95;14.23;;;;;;;-0.81;100.00;96735.50;5088335;28;20061;-61
2023/01/12 06:43:54;;;;;;;18.67;16.15;;;;;;;-0.77;100.00;96740.56;5090181;28;20027;-61
2023/01/12 06:46:19;;;;;;;20.13;15.40;;;;;;;-0.83;100.00;96747.63;5091449;28;20016;-61
2023/01/12 06:48:45;;;;;;;18.30;16.40;;;;;;;-0.91;100.00;96743.56;5091055;28;20111;-62
2023/01/12 06:51:10;;;;;;;31.88;27.02;;;;;;;-0.94;100.00;96753.13;5092203;28;20028;-61
2023/01/12 06:53:35;;;;;;;44.15;34.00;;;;;;;-0.97;100.00;96738.56;5092309;28;20038;-62
2023/01/12 06:56:01;;;;;;;35.17;23.48;;;;;;;-0.94;100.00;96742.78;5092144;28;20115;-66
2023/01/12 06:58:26;;;;;;;32.85;23.27;;;;;;;-0.93;100.00;96747.94;5091479;28;20063;-64
2023/01/12 07:00:51;;;;;;;52.55;35.47;;;;;;;-0.94;100.00;96737.63;5090873;28;20039;-64
2023/01/12 07:03:19;;;;;;;49.03;32.15;;;;;;;-0.96;100.00;96750.59;5091100;28;20100;-65
2023/01/12 07:05:44;;;;;;;49.70;34.13;;;;;;;-0.99;100.00;96760.19;5088366;28;20107;-65
2023/01/12 07:08:14;;;;;;;51.67;35.20;;;;;;;-1.03;100.00;96762.84;5093124;28;20035;-62
2023/01/12 07:10:40;;;;;;;43.65;32.83;;;;;;;-1.02;100.00;96761.09;5092041;28;20031;-65
2023/01/12 07:13:05;;;;;;;44.00;32.35;;;;;;;-0.94;100.00;96771.22;5099070;28;20113;-65
2023/01/12 07:15:31;;;;;;;44.33;32.70;;;;;;;-0.63;100.00;96768.56;5092074;28;20464;-64
2023/01/12 07:17:57;;;;;;;43.67;30.00;;;;;;;-0.48;100.00;96766.44;5092148;28;20028;-62
2023/01/12 07:20:23;;;;;;;57.88;40.85;;;;;;;-0.42;100.00;96758.47;5091797;28;20024;-62
2023/01/12 07:22:48;;;;;;;61.35;43.72;;;;;;;-0.63;100.00;96757.41;5087275;28;20036;-62
2023/01/12 07:25:14;;;;;;;58.75;40.90;;;;;;;-0.79;100.00;96747.50;5090371;28;20035;-62
2023/01/12 07:27:50;;;;;;;55.10;37.95;;;;;;;-0.83;100.00;96750.22;5090946;28;20806;-60
2023/01/12 07:30:17;;;;;;;56.22;37.17;;;;;;;-0.88;100.00;96740.88;5089481;28;20101;-61
2023/01/12 07:32:42;;;;;;;55.55;39.33;;;;;;;-0.94;100.00;96753.13;5091643;28;20027;-70
2023/01/12 07:35:07;;;;;;;53.28;37.90;;;;;;;-0.97;100.00;96750.63;5091879;28;20020;-71
2023/01/12 07:37:33;;;;;;;48.85;35.70;;;;;;;-0.94;100.00;96758.31;5091666;28;20064;-65
2023/01/12 07:39:58;;;;;;;48.08;34.95;;;;;;;-0.93;100.00;96755.69;5091429;28;20024;-66
2023/01/12 07:42:23;;;;;;;49.22;32.42;;;;;;;-0.93;100.00;96737.59;5091474;28;20077;-65
2023/01/12 07:44:49;;;;;;;41.47;32.28;;;;;;;-0.91;100.00;96748.72;5086599;28;20020;-65
2023/01/12 07:47:14;;;;;;;44.50;32.95;;;;;;;-0.86;100.00;96751.19;5073288;28;20024;-65
2023/01/12 07:49:40;;;;;;;43.33;31.20;;;;;;;-0.83;100.00;96758.84;5091824;28;20016;-65
2023/01/12 07:52:05;;;;;;;42.53;32.72;;;;;;;-0.78;100.00;96764.72;5091854;28;20024;-61
2023/01/12 07:54:32;;;;;;;45.08;33.92;;;;;;;-0.69;100.00;96758.44;5091368;28;20031;-62
2023/01/12 07:56:58;;;;;;;45.40;37.70;;;;;;;-0.50;100.00;96761.28;5091668;28;20531;-62
2023/01/12 07:59:23;;;;;;;47.75;35.40;;;;;;;-0.50;100.00;96768.22;5090785;28;20128;-62
2023/01/12 08:01:49;;;;;;;51.25;42.40;;;;;;;-0.47;100.00;96771.53;5091294;28;20039;-62
2023/01/12 08:04:14;;;;;;;43.45;34.17;;;;;;;-0.44;100.00;96775.78;5091314;28;20051;-62
2023/01/12 08:06:39;;;;;;;45.55;33.00;;;;;;;-0.37;100.00;96773.84;5091211;28;20024;-62
2023/01/12 08:09:05;;;;;;;44.05;35.03;;;;;;;-0.32;100.00;96770.22;5090628;28;20020;-62
2023/01/12 08:11:30;;;;;;;40.97;31.88;;;;;;;-0.32;100.00;96761.59;5091252;28;20024;-65
2023/01/12 08:13:57;;;;;;;33.47;27.75;;;;;;;-0.27;100.00;96764.06;5090775;28;20039;-63
2023/01/12 08:16:29;;;;;;;31.63;28.33;;;;;;;-0.21;100.00;96759.53;5091276;28;20822;-64
2023/01/12 08:19:01;;;;;;;73.30;58.15;;;;;;;-0.18;100.00;96764.63;5090665;28;20027;-65
2023/01/12 08:21:32;;;;;;;47.40;39.33;;;;;;;-0.16;100.00;96768.00;5091041;28;20039;-64
2023/01/12 08:24:00;;;;;;;55.20;45.58;;;;;;;-0.09;100.00;96770.38;5090670;28;20032;-65
2023/01/12 08:26:31;;;;;;;47.63;33.30;;;;;;;-0.12;100.00;96779.06;5091256;28;20069;-64
2023/01/12 08:29:17;;;;;;;78.32;52.08;;;;;;;-0.10;100.00;96777.31;5090199;28;20103;-65
2023/01/12 08:31:43;;;;;;;52.05;35.70;;;;;;;-0.09;100.00;96773.81;5090584;28;20448;-62
2023/01/12 08:34:09;;;;;;;39.28;29.33;;;;;;;-0.03;100.00;96765.84;5089204;28;20032;-62
2023/01/12 08:36:35;;;;;;;68.85;49.85;;;;;;;0.09;100.00;96779.28;5087070;28;20024;-74
2023/01/12 08:39:03;;;;;;;59.75;43.67;;;;;;;0.08;100.00;96786.22;5090271;28;20044;-75
2023/01/12 08:41:31;;;;;;;61.08;40.22;;;;;;;0.09;100.00;96774.97;5090732;28;20036;-75
2023/01/12 08:44:07;;;;;;;50.47;38.42;;;;;;;0.18;100.00;96775.53;5090448;28;20061;-74
2023/01/12 08:46:35;;;;;;;41.50;33.45;;;;;;;0.18;100.00;96778.13;5090547;28;20028;-75
2023/01/12 08:49:02;;;;;;;42.70;33.17;;;;;;;0.18;100.00;96778.13;5078155;28;20024;-75
2023/01/12 08:51:28;;;;;;;34.33;28.63;;;;;;;0.14;100.00;96770.47;5090382;28;20020;-64
2023/01/12 08:53:53;;;;;;;62.70;28.70;;;;;;;0.20;100.00;96773.75;5090264;28;20031;-64
2023/01/12 08:56:19;;;;;;;55.80;27.77;;;;;;;0.24;100.00;96772.75;5085896;28;20023;-63
2023/01/12 08:58:44;;;;;;;31.30;25.73;;;;;;;0.26;100.00;96764.03;5081332;28;20478;-64
2023/01/12 09:01:12;;;;;;;39.00;25.75;;;;;;;0.27;100.00;96757.13;5085940;28;20024;-63
2023/01/12 09:03:38;;;;;;;35.15;25.67;;;;;;;0.28;100.00;96758.81;5052283;28;20022;-64
2023/01/12 09:06:22;;;;;;;38.10;28.80;;;;;;;0.31;100.00;96758.69;5088265;28;20481;-63
2023/01/12 09:08:53;;;;;;;49.75;30.60;;;;;;;0.34;100.00;96765.53;5090224;28;20012;-64
2023/01/12 09:11:18;;;;;;;40.75;27.23;;;;;;;0.35;100.00;96757.69;5078677;28;20030;-62
2023/01/12 09:13:43;;;;;;;35.25;24.67;;;;;;;0.37;100.00;96768.84;5089686;28;20024;-63
2023/01/12 09:16:11;;;;;;;31.67;25.17;;;;;;;0.37;100.00;96758.47;5090163;28;20020;-63
2023/01/12 09:18:37;;;;;;;38.25;31.45;;;;;;;0.36;100.00;96767.16;5089581;28;20024;-62
2023/01/12 09:21:04;;;;;;;60.53;41.20;;;;;;;0.38;100.00;96769.69;5090262;28;20035;-63
2023/01/12 09:23:30;;;;;;;62.15;44.05;;;;;;;0.41;100.00;96777.38;5089480;28;20020;-63
2023/01/12 09:25:55;;;;;;;41.92;34.60;;;;;;;0.45;100.00;96784.13;5089904;28;20085;-64
2023/01/12 09:28:21;;;;;;;48.40;36.22;;;;;;;0.46;100.00;96785.00;5089693;28;20452;-63
2023/01/12 09:30:46;;;;;;;44.78;33.65;;;;;;;0.55;100.00;96788.09;5063886;28;20032;-62
2023/01/12 09:33:12;;;;;;;50.05;33.38;;;;;;;0.70;100.00;96784.13;5084323;28;20028;-75
2023/01/12 09:35:37;;;;;;;58.55;44.92;;;;;;;0.98;100.00;96783.13;5089807;28;20027;-74
2023/01/12 09:38:03;;;;;;;30.95;25.30;;;;;;;1.36;100.00;96787.78;5070933;28;20119;-75
2023/01/12 09:40:28;;;;;;;117.07;78.05;;;;;;;1.67;100.00;96797.00;5089540;28;20032;-74
2023/01/12 09:48:23;;;;;;;47.85;35.28;;;;;;;2.26;100.00;96797.25;5089835;28;20078;-64
2023/01/12 09:51:00;;;;;;;50.83;41.70;;;;;;;2.62;100.00;96805.31;5089671;28;20024;-75
2023/01/12 09:53:39;;;;;;;44.30;30.05;;;;;;;2.90;100.00;96797.19;5076596;28;20027;-63
2023/01/12 09:56:07;;;;;;;19.23;16.98;;;;;;;3.08;100.00;96792.06;5089368;28;20028;-64
2023/01/12 09:59:04;;;;;;;36.42;27.45;;;;;;;3.03;100.00;96797.47;5089478;28;20032;-64
2023/01/12 10:01:30;;;;;;;14.20;8.23;;;;;;;2.81;100.00;96798.44;5089167;28;20096;-64
2023/01/12 10:03:58;;;;;;;11.10;8.73;;;;;;;2.83;100.00;96785.34;5089452;28;20493;-63
2023/01/12 10:06:23;;;;;;;25.20;20.63;;;;;;;2.84;100.00;96803.50;5077205;28;20031;-63
2023/01/12 10:08:55;;;;;;;26.48;19.98;;;;;;;2.75;100.00;96788.25;5089081;28;20028;-73
2023/01/12 10:11:55;;;;;;;17.98;11.48;;;;;;;2.64;100.00;96787.91;5078000;28;20393;-62
2023/01/12 10:14:23;;;;;;;16.10;9.88;;;;;;;2.60;100.00;96781.16;5089051;28;20016;-62
2023/01/12 10:17:06;;;;;;;17.63;10.43;;;;;;;2.69;100.00;96771.19;5089076;28;20562;-63
2023/01/12 10:19:50;;;;;;;21.60;10.93;;;;;;;2.91;100.00;96766.78;5078385;28;20046;-63
2023/01/12 10:22:38;;;;;;;16.50;9.52;;;;;;;2.97;100.00;96771.72;5088766;28;20051;-63
2023/01/12 10:25:19;;;;;;;10.25;7.93;;;;;;;2.96;100.00;96762.22;5088849;28;20024;-64
2023/01/12 10:27:46;;;;;;;9.68;7.10;;;;;;;3.01;100.00;96758.50;5089341;28;20032;-64
2023/01/12 10:30:18;;;;;;;11.32;6.85;;;;;;;3.29;100.00;96743.41;5089015;28;20052;-64
2023/01/12 10:32:44;;;;;;;10.80;6.65;;;;;;;3.69;100.00;96743.28;5089147;28;20496;-65
2023/01/12 10:35:15;;;;;;;8.65;6.47;;;;;;;3.98;100.00;96731.44;5088843;28;20050;-65
2023/01/12 10:37:49;;;;;;;8.57;7.30;;;;;;;4.28;100.00;96723.00;5089126;28;20048;-64
2023/01/12 10:40:24;;;;;;;7.10;6.00;;;;;;;4.55;100.00;96709.50;5087126;28;20016;-64
2023/01/12 10:43:18;;;;;;;11.25;8.15;;;;;;;4.83;100.00;96702.81;5089052;28;20027;-64
2023/01/12 10:46:16;;;;;;;19.33;14.80;;;;;;;5.03;100.00;96698.31;5089074;28;20020;-61
2023/01/12 10:48:47;;;;;;;10.20;8.02;;;;;;;5.17;100.00;96692.34;5084962;28;20036;-62
2023/01/12 10:51:23;;;;;;;12.52;11.00;;;;;;;5.25;100.00;96694.53;5104615;28;20032;-66
2023/01/12 10:53:54;;;;;;;6.35;2.47;;;;;;;5.35;100.00;96680.03;5088476;28;20028;-66
2023/01/12 10:56:38;;;;;;;5.63;2.63;;;;;;;5.47;100.00;96678.50;5088536;28;20035;-66
2023/01/12 10:59:16;;;;;;;7.60;3.78;;;;;;;5.57;100.00;96661.38;5091635;28;20028;-65
2023/01/12 11:02:07;;;;;;;8.60;6.63;;;;;;;5.96;100.00;96667.03;5092267;28;20032;-65
2023/01/12 11:04:50;;;;;;;6.32;4.70;;;;;;;5.89;100.00;96657.88;5092496;28;20036;-65
2023/01/12 11:07:21;;;;;;;9.32;4.93;;;;;;;5.53;100.00;96643.34;5092537;28;20024;-62
2023/01/12 11:09:47;;;;;;;5.75;4.68;;;;;;;5.64;100.00;96645.34;5092307;28;20107;-62
2023/01/12 11:12:33;;;;;;;6.95;5.78;;;;;;;5.55;100.00;96641.50;5092414;28;20028;-62
2023/01/12 11:15:03;;;;;;;9.50;7.03;;;;;;;5.40;100.00;96636.19;5092595;28;20028;-62
2023/01/12 11:17:50;;;;;;;7.85;4.85;;;;;;;5.52;100.00;96633.84;5092110;28;20024;-62
2023/01/12 11:20:45;;;;;;;6.78;3.90;;;;;;;5.40;100.00;96624.94;5092026;28;20438;-62
2023/01/12 11:23:32;;;;;;;6.28;3.85;;;;;;;5.47;100.00;96622.81;5080614;28;20040;-62
2023/01/12 11:26:01;;;;;;;4.55;4.05;;;;;;;5.57;100.00;96618.75;5091757;28;20027;-64
2023/01/12 11:28:35;;;;;;;5.65;4.45;;;;;;;5.59;100.00;96622.09;5092282;28;20039;-64
2023/01/12 11:31:14;;;;;;;7.85;6.55;;;;;;;5.37;100.00;96617.28;5091787;28;20102;-65
2023/01/12 11:33:48;;;;;;;12.13;9.52;;;;;;;5.14;100.00;96612.41;5092024;28;20020;-65
2023/01/12 11:36:30;;;;;;;10.80;9.70;;;;;;;4.93;100.00;96603.16;5091820;28;20028;-65
2023/01/12 11:39:05;;;;;;;11.13;8.70;;;;;;;5.01;100.00;96604.41;5091368;28;20040;-65
2023/01/12 11:41:33;;;;;;;;;;;;;;;4.63;100.00;96602.13;5092634;28;20466;-65
2023/01/12 11:44:15;;;;;;;13.85;12.50;;;;;;;4.70;100.00;96608.72;5091310;28;19912;-63
2023/01/12 11:47:02;;;;;;;14.02;12.73;;;;;;;4.83;100.00;96616.72;5091522;28;20031;-61
2023/01/12 11:49:36;;;;;;;14.38;12.90;;;;;;;4.80;100.00;96609.06;5091244;28;20012;-62
2023/01/12 11:52:01;;;;;;;24.42;14.23;;;;;;;4.53;100.00;96607.03;5091478;28;20110;-62
2023/01/12 11:54:29;;;;;;;15.23;13.63;;;;;;;4.40;100.00;96609.41;5091081;28;20108;-65
2023/01/12 11:57:18;;;;;;;15.02;12.15;;;;;;;4.18;100.00;96612.31;5091284;28;20032;-62
2023/01/12 11:59:46;;;;;;;13.82;12.50;;;;;;;4.06;100.00;96603.38;5091034;28;20099;-62